Time;durP1;ratioP1;P1;durP2;ratioP2;P2;SDS_P1;SDS_P2;PMS_P1;PMS_P2;Temp;Humidity;BMP_temperature;BMP_pressure;BME280_temperature;BME280_humidity;BME280_pressure;Samples;Min_cycle;Max_cycle;Signal;HPM_P1;HPM_P2
2023/01/13 00:01:24;;;;;;;15.60;8.23;;;21.50;61.10;;;;;;5090749;28;20032;-74
2023/01/13 00:03:51;;;;;;;11.20;6.63;;;21.40;60.90;;;;;;5075231;28;20060;-74
2023/01/13 00:06:20;;;;;;;12.45;6.75;;;21.50;61.10;;;;;;5094696;28;20036;-74
2023/01/13 00:08:50;;;;;;;9.75;7.03;;;21.50;60.90;;;;;;5059167;28;20040;-74
2023/01/13 00:11:16;;;;;;;13.88;6.70;;;21.30;60.80;;;;;;5077261;28;20785;-74
2023/01/13 00:13:42;;;;;;;9.75;6.60;;;21.40;61.50;;;;;;5094428;28;20023;-74
2023/01/13 00:16:11;;;;;;;11.57;7.18;;;21.30;60.90;;;;;;5094318;28;20028;-74
2023/01/13 00:18:37;;;;;;;9.98;5.88;;;21.40;61.00;;;;;;5094084;28;20399;-74
2023/01/13 00:21:08;;;;;;;12.82;6.57;;;21.40;61.20;;;;;;5093567;28;20491;-74
2023/01/13 00:23:35;;;;;;;14.00;8.05;;;21.20;60.80;;;;;;5094868;28;20036;-74
2023/01/13 00:26:04;;;;;;;14.27;7.00;;;21.20;60.80;;;;;;5089085;28;20035;-74
2023/01/13 00:28:30;;;;;;;10.13;5.68;;;21.30;60.90;;;;;;5060839;28;20040;-74
2023/01/13 00:31:07;;;;;;;13.38;7.43;;;21.30;61.10;;;;;;5093998;28;20503;-74
2023/01/13 00:33:34;;;;;;;13.25;7.03;;;21.10;60.80;;;;;;5094529;28;20081;-74
2023/01/13 00:36:01;;;;;;;9.65;6.50;;;21.10;60.70;;;;;;5094967;28;20469;-74
2023/01/13 00:38:29;;;;;;;19.25;6.72;;;21.20;61.00;;;;;;5093863;28;20036;-74
2023/01/13 00:41:01;;;;;;;16.42;8.25;;;21.10;60.70;;;;;;5059359;28;20084;-74
2023/01/13 00:43:29;;;;;;;11.35;7.18;;;21.10;60.70;;;;;;5093204;28;20441;-74
2023/01/13 00:45:55;;;;;;;15.88;6.72;;;21.00;60.70;;;;;;5093049;28;20028;-74
2023/01/13 00:48:22;;;;;;;10.23;6.53;;;21.00;60.60;;;;;;5094731;28;20035;-74
2023/01/13 00:50:59;;;;;;;11.45;6.80;;;21.00;60.40;;;;;;5058771;28;20500;-74
2023/01/13 00:53:26;;;;;;;11.55;7.30;;;21.10;60.50;;;;;;5094744;28;20347;-74
2023/01/13 00:56:00;;;;;;;12.40;6.30;;;21.00;60.40;;;;;;5059942;28;20480;-74
2023/01/13 00:58:26;;;;;;;16.60;5.82;;;21.00;60.60;;;;;;5094559;28;20503;-74
2023/01/13 01:00:52;;;;;;;11.73;6.88;;;21.00;60.30;;;;;;5092404;28;20511;-74
2023/01/13 01:03:18;;;;;;;9.02;6.05;;;21.10;60.30;;;;;;5094428;28;20056;-74
2023/01/13 01:05:44;;;;;;;14.10;6.80;;;21.10;60.20;;;;;;5076293;28;20600;-74
2023/01/13 01:08:10;;;;;;;13.45;6.60;;;21.10;60.00;;;;;;5094388;28;20039;-74
2023/01/13 01:10:36;;;;;;;9.90;6.22;;;21.10;60.00;;;;;;5093104;28;20074;-74
2023/01/13 01:13:02;;;;;;;13.02;6.40;;;21.10;59.70;;;;;;5075047;28;20032;-74
2023/01/13 01:15:28;;;;;;;13.95;6.53;;;21.20;59.70;;;;;;5057939;28;20048;-74
2023/01/13 01:17:54;;;;;;;8.20;5.97;;;21.20;59.50;;;;;;5075874;28;20525;-74
2023/01/13 01:20:20;;;;;;;11.15;6.50;;;21.20;59.30;;;;;;5077592;28;20060;-74
2023/01/13 01:22:46;;;;;;;15.45;6.28;;;21.30;59.20;;;;;;5073606;28;20032;-74
2023/01/13 01:25:11;;;;;;;8.82;5.57;;;21.30;59.20;;;;;;5073647;28;20090;-74
2023/01/13 01:27:37;;;;;;;12.63;5.47;;;21.30;59.10;;;;;;5074732;28;20036;-74
2023/01/13 01:30:04;;;;;;;11.00;5.85;;;21.30;59.10;;;;;;5089581;28;20035;-74
2023/01/13 01:32:33;;;;;;;17.42;6.25;;;21.30;58.90;;;;;;5093113;28;20492;-74
2023/01/13 01:34:59;;;;;;;14.27;5.85;;;21.40;58.70;;;;;;5093714;28;20043;-74
2023/01/13 01:37:25;;;;;;;8.20;6.13;;;21.40;58.60;;;;;;5075657;28;20054;-74
2023/01/13 01:39:51;;;;;;;10.48;5.97;;;21.40;58.70;;;;;;5081529;28;20039;-74
2023/01/13 01:45:14;;;;;;;11.82;5.90;;;21.50;58.40;;;;;;5079952;28;20035;-74
2023/01/13 01:47:41;;;;;;;8.77;6.68;;;21.40;58.20;;;;;;5038745;28;20024;-74
2023/01/13 01:50:09;;;;;;;14.90;6.45;;;21.40;58.20;;;;;;5055305;28;20127;-74
2023/01/13 01:52:39;;;;;;;10.93;5.88;;;21.60;58.30;;;;;;5073286;28;20128;-74
2023/01/13 01:55:12;;;;;;;9.82;5.63;;;21.50;58.10;;;;;;5073020;28;20056;-74
2023/01/13 01:57:53;;;;;;;9.70;5.25;;;21.60;58.00;;;;;;5055216;28;20028;-74
2023/01/13 02:00:19;;;;;;;13.35;6.20;;;21.50;58.20;;;;;;5090652;28;20502;-74
2023/01/13 02:02:48;;;;;;;12.77;5.78;;;21.60;58.00;;;;;;5093087;28;20036;-74
2023/01/13 02:05:14;;;;;;;10.45;5.43;;;21.60;58.10;;;;;;5075064;28;20036;-74
2023/01/13 02:07:42;;;;;;;15.73;6.32;;;21.60;58.10;;;;;;5093039;28;20016;-74
2023/01/13 02:10:13;;;;;;;10.38;6.05;;;21.60;58.10;;;;;;5092736;28;20491;-74
2023/01/13 02:12:42;;;;;;;9.95;6.05;;;21.60;58.10;;;;;;5093280;28;20031;-74
2023/01/13 02:15:12;;;;;;;12.82;6.57;;;21.60;57.90;;;;;;5091304;28;20043;-74
2023/01/13 02:18:13;;;;;;;12.80;5.82;;;21.50;57.90;;;;;;5071317;28;20412;-74
2023/01/13 02:20:58;;;;;;;10.15;6.15;;;21.50;57.80;;;;;;5072050;28;20112;-74
2023/01/13 02:26:33;;;;;;;9.57;5.13;;;21.50;57.80;;;;;;5071771;28;20043;-74
2023/01/13 02:32:32;;;;;;;12.32;6.25;;;21.30;57.90;;;;;;5076497;28;20044;-74
2023/01/13 02:35:07;;;;;;;11.20;5.90;;;21.40;57.90;;;;;;5009683;28;20053;-74
2023/01/13 02:37:39;;;;;;;12.48;5.90;;;21.20;57.90;;;;;;5009782;28;20137;-74
2023/01/13 02:40:08;;;;;;;9.98;5.88;;;21.20;57.80;;;;;;5010308;28;20164;-74
2023/01/13 02:45:45;;;;;;;9.20;5.82;;;21.30;57.90;;;;;;5008553;28;20073;-74
2023/01/13 02:48:17;;;;;;;16.50;6.20;;;21.20;57.70;;;;;;5009685;28;20034;-74
2023/01/13 02:51:04;;;;;;;11.35;5.70;;;21.20;57.60;;;;;;5010030;28;20065;-74
2023/01/13 02:53:41;;;;;;;14.65;5.97;;;21.30;57.60;;;;;;5005941;28;20043;-74
2023/01/13 02:56:08;;;;;;;10.55;5.53;;;21.30;57.40;;;;;;4951384;28;20039;-74
2023/01/13 02:58:37;;;;;;;9.25;5.35;;;21.30;57.40;;;;;;4951246;28;20044;-74
2023/01/13 03:01:03;;;;;;;13.65;5.45;;;21.40;57.30;;;;;;4966168;28;20511;-74
2023/01/13 03:03:31;;;;;;;10.18;5.63;;;21.20;57.20;;;;;;4970951;28;20122;-74
2023/01/13 03:06:25;;;;;;;12.80;5.53;;;21.40;57.20;;;;;;4970143;28;20115;-74
2023/01/13 03:09:18;;;;;;;11.90;5.43;;;21.30;57.20;;;;;;4908978;29;20123;-74
2023/01/13 03:11:56;;;;;;;10.30;5.47;;;21.40;57.10;;;;;;4917069;29;20067;-74
2023/01/13 03:14:33;;;;;;;6.57;4.78;;;21.30;57.20;;;;;;4953000;28;20055;-74
2023/01/13 03:17:26;;;;;;;11.70;5.28;;;21.30;57.10;;;;;;4969694;28;20184;-74
2023/01/13 03:20:04;;;;;;;12.57;6.35;;;21.20;56.90;;;;;;4969385;28;20046;-74
2023/01/13 03:22:58;;;;;;;9.70;6.05;;;21.20;56.90;;;;;;4969850;28;20566;-74
2023/01/13 03:25:30;;;;;;;10.07;5.40;;;21.20;57.00;;;;;;4950387;29;20046;-74
2023/01/13 03:28:04;;;;;;;8.25;5.55;;;21.00;57.00;;;;;;4950136;29;20508;-74
2023/01/13 03:30:36;;;;;;;12.77;5.60;;;21.00;57.10;;;;;;4949013;29;20047;-74
2023/01/13 03:33:16;;;;;;;15.07;5.50;;;21.00;57.00;;;;;;4950649;29;20195;-74
2023/01/13 03:35:49;;;;;;;10.77;5.68;;;20.90;57.00;;;;;;4950341;29;20047;-74
2023/01/13 03:38:31;;;;;;;13.20;5.72;;;21.00;57.00;;;;;;4955536;28;20067;-74
2023/01/13 03:41:02;;;;;;;14.07;5.28;;;20.90;57.00;;;;;;4957389;28;20126;-74
2023/01/13 03:46:44;;;;;;;10.48;5.28;;;20.90;57.10;;;;;;5019418;28;20077;-74
2023/01/13 03:49:14;;;;;;;8.35;5.80;;;21.00;56.80;;;;;;5035278;28;20124;-74
2023/01/13 03:51:43;;;;;;;7.53;5.68;;;21.00;56.80;;;;;;5035503;28;20033;-74
2023/01/13 03:54:12;;;;;;;16.23;5.70;;;21.10;56.60;;;;;;5035720;28;20165;-74
2023/01/13 03:56:48;;;;;;;9.43;6.60;;;21.00;56.50;;;;;;5035035;28;20142;-74
2023/01/13 03:59:21;;;;;;;15.52;6.70;;;21.00;56.40;;;;;;5034470;28;20041;-74
2023/01/13 04:01:58;;;;;;;10.60;5.05;;;21.10;56.40;;;;;;5049745;28;20065;-74
2023/01/13 04:04:27;;;;;;;10.63;5.80;;;21.10;56.30;;;;;;5098222;28;20476;-74
2023/01/13 04:06:55;;;;;;;13.70;5.60;;;21.10;56.20;;;;;;5059777;28;20032;-74
2023/01/13 04:09:24;;;;;;;12.80;5.65;;;21.30;56.30;;;;;;5078047;28;20467;-74
2023/01/13 04:15:22;;;;;;;9.60;5.22;;;21.10;55.90;;;;;;5015019;28;20515;-74
2023/01/13 04:17:50;;;;;;;11.43;5.32;;;21.10;56.00;;;;;;5035342;28;20061;-74
2023/01/13 04:20:16;;;;;;;10.75;5.50;;;20.90;56.10;;;;;;5034396;28;20049;-74
2023/01/13 04:22:42;;;;;;;14.32;5.88;;;21.00;55.90;;;;;;5035349;28;20026;-74
2023/01/13 04:25:09;;;;;;;10.82;5.72;;;21.00;55.90;;;;;;5018821;28;20050;-74
2023/01/13 04:27:35;;;;;;;13.18;5.18;;;20.90;55.80;;;;;;4995793;28;20273;-74
2023/01/13 04:30:00;;;;;;;7.28;4.85;;;20.90;56.10;;;;;;5030042;28;20116;-74
2023/01/13 04:32:26;;;;;;;9.40;4.75;;;20.90;55.90;;;;;;5016730;28;20663;-74
2023/01/13 04:34:53;;;;;;;8.63;4.72;;;21.00;55.60;;;;;;5018249;28;20037;-74
2023/01/13 04:37:19;;;;;;;9.00;5.65;;;21.10;55.60;;;;;;5015755;28;20037;-74
2023/01/13 04:39:45;;;;;;;7.20;5.05;;;21.10;55.50;;;;;;5014673;28;20045;-74
2023/01/13 04:42:11;;;;;;;10.77;5.88;;;21.10;55.70;;;;;;5014615;28;20037;-74
2023/01/13 04:44:37;;;;;;;11.70;5.95;;;21.20;55.50;;;;;;5030710;28;20053;-74
2023/01/13 04:47:04;;;;;;;17.40;6.45;;;21.20;55.60;;;;;;5030139;28;20056;-74
2023/01/13 04:49:30;;;;;;;9.52;5.93;;;21.30;55.60;;;;;;5032580;28;20520;-74
2023/01/13 04:51:56;;;;;;;10.57;5.57;;;21.10;55.60;;;;;;5046714;28;20121;-74
2023/01/13 04:54:22;;;;;;;9.55;5.65;;;21.10;55.80;;;;;;5075067;28;20086;-73
2023/01/13 04:56:48;;;;;;;14.13;6.38;;;21.20;55.80;;;;;;5075035;28;20025;-74
2023/01/13 04:59:14;;;;;;;14.35;6.45;;;21.00;55.80;;;;;;5082780;28;20024;-74
2023/01/13 05:01:40;;;;;;;9.68;5.60;;;21.10;55.90;;;;;;5093448;28;20419;-74
2023/01/13 05:04:06;;;;;;;10.93;5.80;;;21.10;55.80;;;;;;5093526;28;20028;-74
2023/01/13 05:06:32;;;;;;;10.27;5.57;;;21.00;55.80;;;;;;5094365;28;20070;-74
2023/01/13 05:08:58;;;;;;;10.43;5.65;;;21.10;55.80;;;;;;5093335;28;20032;-74
2023/01/13 05:17:02;;;;;;;10.73;5.38;;;20.90;55.80;;;;;;5006397;28;20501;-74
2023/01/13 05:19:33;;;;;;;9.63;5.68;;;20.90;55.90;;;;;;4995060;28;20136;-74
2023/01/13 05:27:30;;;;;;;12.90;5.70;;;20.80;55.80;;;;;;4995443;28;20562;-74
2023/01/13 05:29:57;;;;;;;10.65;5.80;;;20.70;55.90;;;;;;4991922;28;20125;-74
2023/01/13 05:32:24;;;;;;;9.43;5.82;;;20.70;56.10;;;;;;5009813;28;20065;-74
2023/01/13 05:34:50;;;;;;;10.95;5.82;;;20.80;55.90;;;;;;5010763;28;20107;-74
2023/01/13 05:37:16;;;;;;;11.80;5.70;;;20.80;55.70;;;;;;5011359;28;20041;-74
2023/01/13 05:45:11;;;;;;;9.90;5.47;;;20.80;55.60;;;;;;5010318;28;20132;-74
2023/01/13 05:47:37;;;;;;;8.23;4.97;;;20.80;55.60;;;;;;5010836;28;20109;-74
2023/01/13 05:50:04;;;;;;;14.20;6.97;;;20.70;55.50;;;;;;5010414;28;20042;-74
2023/01/13 05:52:31;;;;;;;10.68;6.95;;;20.70;55.40;;;;;;5056420;28;20089;-74
2023/01/13 05:54:56;;;;;;;15.57;5.82;;;20.80;55.40;;;;;;5075488;28;20028;-74
2023/01/13 05:57:22;;;;;;;10.25;5.82;;;20.80;55.30;;;;;;5093398;28;20082;-74
2023/01/13 05:59:49;;;;;;;11.65;5.82;;;20.80;55.30;;;;;;5033789;28;20109;-74
2023/01/13 06:02:14;;;;;;;9.10;6.05;;;20.80;55.20;;;;;;5047909;28;20041;-74
2023/01/13 06:04:40;;;;;;;11.73;5.65;;;20.80;55.00;;;;;;5050439;28;20041;-74
2023/01/13 06:07:06;;;;;;;12.73;5.38;;;20.90;55.10;;;;;;5049523;28;20076;-74
2023/01/13 06:09:32;;;;;;;11.65;6.60;;;20.80;54.90;;;;;;5049373;28;20064;-74
2023/01/13 06:11:58;;;;;;;15.57;6.25;;;20.70;55.10;;;;;;5050531;28;20272;-74
2023/01/13 06:14:24;;;;;;;10.73;5.97;;;20.60;55.10;;;;;;5049261;28;20547;-74
2023/01/13 06:16:50;;;;;;;13.38;6.13;;;20.60;55.20;;;;;;5033029;28;20493;-74
2023/01/13 06:19:16;;;;;;;15.05;6.47;;;20.70;55.40;;;;;;5017013;28;20132;-74
2023/01/13 06:21:43;;;;;;;15.32;6.50;;;20.70;55.30;;;;;;5050132;28;20056;-74
2023/01/13 06:24:10;;;;;;;13.73;6.60;;;20.70;55.30;;;;;;5048956;28;20033;-74
2023/01/13 06:26:40;;;;;;;19.05;6.38;;;20.50;55.40;;;;;;5049828;28;20134;-74
2023/01/13 06:29:07;;;;;;;13.35;6.63;;;20.60;55.40;;;;;;5047520;28;20044;-74
2023/01/13 06:31:37;;;;;;;13.48;7.10;;;20.70;55.00;;;;;;5037769;28;20127;-74
2023/01/13 06:34:11;;;;;;;10.70;6.22;;;20.60;55.00;;;;;;5065518;28;20032;-74
2023/01/13 06:36:45;;;;;;;11.90;6.30;;;20.60;55.10;;;;;;5069669;28;20039;-74
2023/01/13 06:39:15;;;;;;;15.50;5.88;;;20.60;55.10;;;;;;5091681;28;20436;-74
2023/01/13 06:44:26;;;;;;;23.50;8.15;;;20.60;54.80;;;;;;5084509;28;20097;-74
2023/01/13 06:46:52;;;;;;;18.63;6.05;;;20.70;54.80;;;;;;5066466;28;20039;-74
2023/01/13 06:49:18;;;;;;;13.63;7.43;;;20.60;54.90;;;;;;5092074;28;20032;-74
2023/01/13 06:51:45;;;;;;;14.15;7.70;;;20.70;54.80;;;;;;5055819;28;20044;-74
2023/01/13 06:54:11;;;;;;;18.45;9.90;;;20.60;54.50;;;;;;5073129;28;20077;-74
2023/01/13 06:56:37;;;;;;;23.70;9.38;;;20.70;52.20;;;;;;5072631;28;20064;-74
2023/01/13 06:59:03;;;;;;;14.25;6.78;;;20.70;55.70;;;;;;5090718;28;20036;-75
2023/01/13 07:01:29;;;;;;;7.78;4.15;;;20.90;54.10;;;;;;5090456;28;20028;-76
2023/01/13 07:03:56;;;;;;;14.20;8.23;;;21.10;48.20;;;;;;5078674;28;20084;-71
2023/01/13 07:06:23;;;;;;;12.38;6.70;;;21.10;47.40;;;;;;5090439;28;20028;-73
2023/01/13 07:08:49;;;;;;;10.43;5.60;;;21.10;47.60;;;;;;5074006;28;20039;-73
2023/01/13 07:11:15;;;;;;;10.57;6.05;;;21.00;47.30;;;;;;5076861;28;20488;-74
2023/01/13 07:16:26;;;;;;;1.83;1.60;;;21.30;60.60;;;;;;5072164;28;20029;-74
2023/01/13 07:18:53;;;;;;;1.42;1.35;;;21.70;62.90;;;;;;5087300;28;20376;-75
2023/01/13 07:21:19;;;;;;;6.00;3.05;;;22.00;61.20;;;;;;5071966;28;20111;-74
2023/01/13 07:23:46;;;;;;;3.63;1.52;;;22.10;61.00;;;;;;5079473;28;20097;-73
2023/01/13 07:26:13;;;;;;;22.48;13.02;;;22.20;59.50;;;;;;5073990;28;20111;-71
2023/01/13 07:28:40;;;;;;;26.38;14.90;;;22.30;54.80;;;;;;5091767;28;20024;-70
2023/01/13 07:31:14;;;;;;;16.83;9.02;;;22.30;45.80;;;;;;5091628;28;20032;-72
2023/01/13 07:33:40;;;;;;;15.35;7.97;;;22.20;50.60;;;;;;5080068;28;20036;-71
2023/01/13 07:36:06;;;;;;;16.25;8.30;;;22.20;55.80;;;;;;5074969;28;20020;-73
2023/01/13 07:38:33;;;;;;;14.02;7.43;;;22.10;56.30;;;;;;5092120;28;20039;-71
2023/01/13 07:43:30;;;;;;;12.88;7.60;;;21.90;56.80;;;;;;5083579;28;20063;-74
2023/01/13 07:43:49;;;;;;;12.73;5.35;;;21.80;60.30;;;;;;5053545;28;20028;-74
2023/01/13 07:46:15;;;;;;;12.82;6.03;;;21.80;60.40;;;;;;5071643;28;20041;-72
2023/01/13 07:48:41;;;;;;;10.55;6.05;;;22.00;59.10;;;;;;5072888;28;20119;-74
2023/01/13 07:51:10;;;;;;;12.90;7.40;;;22.00;58.40;;;;;;5091440;28;20115;-73
2023/01/13 07:53:36;;;;;;;10.85;5.63;;;22.10;57.80;;;;;;5091607;28;20051;-73
2023/01/13 07:56:05;;;;;;;13.52;6.28;;;22.20;57.20;;;;;;5091574;28;20364;-74
2023/01/13 07:58:33;;;;;;;11.40;6.25;;;22.20;56.60;;;;;;5091575;28;20116;-75
2023/01/13 08:00:59;;;;;;;10.52;5.53;;;22.30;56.40;;;;;;5091650;28;20032;-73
2023/01/13 08:03:26;;;;;;;18.25;6.80;;;22.30;56.00;;;;;;5091679;28;20438;-73
2023/01/13 08:05:52;;;;;;;19.35;7.65;;;22.40;55.40;;;;;;5089014;28;20067;-76
2023/01/13 08:08:18;;;;;;;15.27;7.22;;;22.40;54.80;;;;;;5068381;28;20517;-76
2023/01/13 08:10:44;;;;;;;13.10;7.53;;;22.40;54.50;;;;;;5047083;28;20550;-73
2023/01/13 08:13:18;;;;;;;11.68;6.88;;;22.20;54.70;;;;;;5047525;28;20037;-74
2023/01/13 08:15:49;;;;;;;14.02;7.90;;;22.10;55.60;;;;;;5048537;28;20048;-72
2023/01/13 08:18:19;;;;;;;12.48;7.15;;;21.90;56.90;;;;;;5048111;28;20497;-73
2023/01/13 08:20:45;;;;;;;11.10;6.32;;;21.90;58.10;;;;;;5047305;28;20528;-73
2023/01/13 08:23:11;;;;;;;11.45;6.63;;;21.80;59.00;;;;;;5048960;28;20040;-74
2023/01/13 08:25:37;;;;;;;15.82;7.20;;;21.70;59.00;;;;;;5052117;28;20029;-75
2023/01/13 08:28:03;;;;;;;12.57;7.32;;;21.60;59.80;;;;;;5052317;28;20048;-73
2023/01/13 08:30:29;;;;;;;10.63;7.43;;;21.50;61.10;;;;;;5052344;28;20048;-72
2023/01/13 08:32:55;;;;;;;13.02;6.95;;;21.60;61.80;;;;;;5051901;28;20033;-74
2023/01/13 08:35:22;;;;;;;11.80;7.35;;;21.60;61.80;;;;;;5052054;28;20086;-72
2023/01/13 08:37:49;;;;;;;9.85;6.28;;;21.60;60.80;;;;;;5052041;28;20064;-73
2023/01/13 08:40:16;;;;;;;9.30;6.72;;;21.60;61.70;;;;;;5061648;28;20251;-74
2023/01/13 08:42:42;;;;;;;7.50;4.95;;;21.60;61.70;;;;;;5054631;28;20190;-79
2023/01/13 08:45:09;;;;;;;31.67;10.60;;;21.60;54.70;;;;;;5054915;28;20530;-73
2023/01/13 08:47:36;;;;;;;11.75;5.85;;;21.90;57.40;;;;;;5054589;28;20078;-74
2023/01/13 08:50:03;;;;;;;12.48;7.93;;;22.10;45.50;;;;;;5035451;28;20576;-74
2023/01/13 08:52:29;;;;;;;11.40;7.72;;;22.20;55.00;;;;;;5054334;28;20033;-76
2023/01/13 08:54:55;;;;;;;10.93;6.22;;;22.30;57.80;;;;;;5054510;28;20037;-77
2023/01/13 08:57:21;;;;;;;11.75;6.60;;;22.30;58.60;;;;;;5054232;28;20040;-74
2023/01/13 08:59:47;;;;;;;11.70;7.35;;;22.30;59.20;;;;;;5052903;28;20432;-76
2023/01/13 09:02:15;;;;;;;14.30;7.47;;;22.20;59.40;;;;;;5054355;28;20116;-73
2023/01/13 09:04:42;;;;;;;13.02;7.55;;;22.20;60.30;;;;;;5054118;28;20064;-73
2023/01/13 09:07:08;;;;;;;10.23;6.75;;;22.00;60.90;;;;;;5056237;28;20057;-76
2023/01/13 09:09:35;;;;;;;15.82;7.50;;;21.90;61.50;;;;;;5060841;28;20491;-71
2023/01/13 09:14:45;;;;;;;14.05;7.35;;;22.00;61.90;;;;;;5073869;28;20044;-71
2023/01/13 09:17:11;;;;;;;12.15;6.78;;;21.90;62.30;;;;;;5074237;28;20029;-70
2023/01/13 09:19:37;;;;;;;16.35;6.38;;;21.80;62.00;;;;;;5073797;28;20028;-74
2023/01/13 09:22:03;;;;;;;12.18;7.97;;;21.90;61.60;;;;;;5074231;28;20024;-74
2023/01/13 09:24:30;;;;;;;17.00;8.07;;;21.90;61.50;;;;;;5056545;28;20052;-76
2023/01/13 09:26:56;;;;;;;13.25;7.00;;;21.80;61.90;;;;;;5073768;28;20101;-75
2023/01/13 09:29:22;;;;;;;14.82;8.07;;;21.80;62.20;;;;;;5074113;28;20457;-74
2023/01/13 09:31:48;;;;;;;19.08;8.38;;;21.90;61.90;;;;;;5055691;28;20116;-75
2023/01/13 09:37:06;;;;;;;13.30;7.88;;;21.80;62.50;;;;;;5073950;28;20032;-75
2023/01/13 09:39:33;;;;;;;11.32;8.20;;;21.70;62.70;;;;;;5073907;28;20016;-75
2023/01/13 09:45:31;;;;;;;14.35;8.52;;;21.80;63.00;;;;;;5093875;28;20122;-73
2023/01/13 09:48:28;;;;;;;22.85;9.35;;;21.60;63.10;;;;;;5094057;28;20059;-72
2023/01/13 09:51:00;;;;;;;15.27;8.63;;;21.60;63.40;;;;;;5093607;28;20075;-75
2023/01/13 09:53:54;;;;;;;14.93;8.82;;;21.60;64.00;;;;;;5093686;28;20059;-74
2023/01/13 09:56:21;;;;;;;14.27;9.68;;;21.50;64.00;;;;;;5093744;28;20035;-78
2023/01/13 09:58:48;;;;;;;14.32;8.73;;;21.50;64.10;;;;;;5093435;28;20036;-75
2023/01/13 10:01:32;;;;;;;16.30;9.98;;;21.40;64.20;;;;;;5093344;28;20035;-74
2023/01/13 10:04:12;;;;;;;16.88;9.45;;;21.40;64.20;;;;;;5093453;28;20036;-75
2023/01/13 10:06:41;;;;;;;13.27;9.25;;;21.20;64.20;;;;;;5093339;28;20067;-75
2023/01/13 10:09:32;;;;;;;15.65;9.98;;;21.20;64.50;;;;;;5057045;28;20127;-76
2023/01/13 10:14:53;;;;;;;13.73;8.50;;;21.20;64.40;;;;;;5093331;28;20365;-76
2023/01/13 10:17:31;;;;;;;15.13;8.65;;;21.30;64.80;;;;;;5093111;28;20115;-75
2023/01/13 10:20:06;;;;;;;23.05;8.43;;;21.20;64.80;;;;;;5087984;28;20484;-75
2023/01/13 10:22:38;;;;;;;13.15;8.05;;;21.30;64.20;;;;;;5074926;28;20028;-76
2023/01/13 10:25:51;;;;;;;15.80;8.07;;;21.40;64.50;;;;;;5073864;28;20045;-80
2023/01/13 10:28:18;;;;;;;12.90;8.10;;;21.30;64.80;;;;;;4986702;28;20488;-77
2023/01/13 10:30:46;;;;;;;15.43;6.45;;;21.30;64.30;;;;;;4975657;28;20039;-72
2023/01/13 10:33:12;;;;;;;15.25;8.27;;;21.40;64.50;;;;;;4989606;28;20085;-76
2023/01/13 10:35:49;;;;;;;12.93;7.50;;;21.50;64.00;;;;;;4973553;28;20552;-77
2023/01/13 10:38:19;;;;;;;14.75;6.63;;;21.30;63.90;;;;;;4978265;28;20042;-74
2023/01/13 10:41:00;;;;;;;14.52;7.63;;;21.40;63.70;;;;;;4979745;28;20534;-77
2023/01/13 10:43:27;;;;;;;14.40;8.30;;;21.40;63.40;;;;;;4981143;28;20077;-76
2023/01/13 10:46:04;;;;;;;12.18;7.70;;;21.50;63.40;;;;;;4976595;28;20646;-77
2023/01/13 10:48:40;;;;;;;13.30;7.55;;;21.30;63.40;;;;;;4971121;28;20127;-76
2023/01/13 10:51:18;;;;;;;16.08;6.40;;;21.40;64.20;;;;;;4970298;28;20069;-77
2023/01/13 10:53:46;;;;;;;13.68;7.03;;;21.30;64.00;;;;;;4954854;28;20046;-77
2023/01/13 10:56:16;;;;;;;12.30;7.70;;;21.30;63.90;;;;;;4970984;28;20059;-77
2023/01/13 10:58:42;;;;;;;13.27;8.65;;;21.30;63.60;;;;;;4970559;28;20050;-76
2023/01/13 11:01:24;;;;;;;11.02;6.75;;;21.20;64.00;;;;;;4980352;28;20418;-77
2023/01/13 11:03:54;;;;;;;18.15;8.10;;;21.30;65.10;;;;;;4990256;28;20047;-77
2023/01/13 11:06:28;;;;;;;15.05;7.35;;;21.20;64.70;;;;;;5071626;28;20029;-77
2023/01/13 11:08:57;;;;;;;16.73;8.63;;;21.20;64.90;;;;;;5078940;28;20024;-77
2023/01/13 11:11:36;;;;;;;11.52;7.25;;;21.20;64.30;;;;;;5090915;28;20075;-77
2023/01/13 11:16:57;;;;;;;62.63;22.25;;;21.10;64.90;;;;;;5082426;28;20050;-76
2023/01/13 11:19:30;;;;;;;23.38;9.23;;;21.20;64.40;;;;;;5080842;28;20081;-76
2023/01/13 11:22:02;;;;;;;14.00;7.85;;;21.20;64.50;;;;;;5080172;28;20028;-79
2023/01/13 11:25:00;;;;;;;14.90;7.13;;;21.20;63.90;;;;;;5086955;28;20028;-74
2023/01/13 11:27:29;;;;;;;16.02;7.32;;;21.30;63.80;;;;;;5083488;28;20032;-78
2023/01/13 11:30:15;;;;;;;8.77;6.40;;;21.30;63.60;;;;;;5089432;28;20119;-79
2023/01/13 11:33:00;;;;;;;11.38;5.47;;;21.50;61.10;;;;;;5070010;28;20032;-78
2023/01/13 11:35:28;;;;;;;12.60;6.40;;;21.90;52.20;;;;;;5084313;28;20028;-78
2023/01/13 11:38:03;;;;;;;10.65;7.45;;;22.00;48.70;;;;;;5081952;28;20028;-72
2023/01/13 11:40:44;;;;;;;10.88;6.32;;;22.00;49.10;;;;;;5048136;28;20163;-71
2023/01/13 11:43:29;;;;;;;9.10;6.45;;;22.00;46.60;;;;;;5084579;28;20028;-73
2023/01/13 11:45:58;;;;;;;11.77;5.68;;;22.20;44.40;;;;;;5082009;28;20032;-75
2023/01/13 11:48:29;;;;;;;9.80;6.10;;;22.10;44.20;;;;;;5089498;28;20119;-75
2023/01/13 11:51:10;;;;;;;12.77;7.13;;;22.20;43.80;;;;;;5089666;28;20028;-74
2023/01/13 11:54:04;;;;;;;9.57;5.40;;;22.30;43.70;;;;;;5090867;28;20412;-75
2023/01/13 11:56:49;;;;;;;8.63;5.93;;;22.40;49.50;;;;;;5090835;28;20020;-77
2023/01/13 11:59:31;;;;;;;10.95;6.40;;;22.30;45.80;;;;;;5090005;28;20031;-76
2023/01/13 12:02:24;;;;;;;15.50;9.32;;;22.60;46.20;;;;;;5092173;28;20055;-74
2023/01/13 12:04:53;;;;;;;;;;;22.60;47.60;;;;;;5080723;28;20388;-74
2023/01/13 12:07:33;;;;;;;11.38;5.70;;;22.60;43.90;;;;;;5081955;28;19916;-73
2023/01/13 12:10:22;;;;;;;13.90;7.30;;;22.70;43.10;;;;;;5074584;28;20416;-72
2023/01/13 12:13:14;;;;;;;15.90;5.60;;;22.60;58.40;;;;;;5059562;28;20384;-74
2023/01/13 12:16:00;;;;;;;14.05;7.25;;;22.70;59.80;;;;;;5086558;28;20148;-75
2023/01/13 12:19:16;;;;;;;17.45;6.68;;;22.80;61.30;;;;;;5032360;28;20125;-73
2023/01/13 12:22:08;;;;;;;13.02;7.78;;;22.70;60.90;;;;;;5011468;28;20034;-75
2023/01/13 12:24:38;;;;;;;12.43;7.03;;;22.60;61.30;;;;;;4973394;28;20054;-73
2023/01/13 12:27:19;;;;;;;15.93;6.82;;;22.70;62.20;;;;;;4971483;28;20565;-74
2023/01/13 12:29:50;;;;;;;10.05;6.90;;;22.50;62.40;;;;;;4972933;28;20112;-73
2023/01/13 12:32:23;;;;;;;15.85;8.00;;;22.50;62.90;;;;;;4972533;28;20043;-74
2023/01/13 12:35:12;;;;;;;14.40;9.10;;;22.30;62.90;;;;;;4971601;28;20110;-74
2023/01/13 12:38:11;;;;;;;12.63;7.90;;;22.20;63.50;;;;;;4972359;28;20566;-75
2023/01/13 12:40:48;;;;;;;12.98;8.02;;;22.10;64.50;;;;;;4960799;28;20049;-76
2023/01/13 12:46:20;;;;;;;14.20;8.68;;;22.10;65.80;;;;;;4953229;28;20615;-75
2023/01/13 12:48:55;;;;;;;10.80;6.88;;;22.20;65.40;;;;;;4951187;28;20122;-75
2023/01/13 12:51:32;;;;;;;12.27;7.53;;;22.10;65.20;;;;;;4952125;28;20126;-74
2023/01/13 12:54:00;;;;;;;11.85;8.38;;;22.00;64.60;;;;;;4953066;28;20035;-75
2023/01/13 12:56:35;;;;;;;10.35;7.15;;;22.00;64.70;;;;;;4938765;28;20039;-75
2023/01/13 12:59:17;;;;;;;9.48;6.68;;;21.90;65.80;;;;;;4953184;29;20571;-75
2023/01/13 13:01:49;;;;;;;12.73;9.00;;;21.90;65.60;;;;;;4994271;28;20037;-77
2023/01/13 13:04:20;;;;;;;15.65;7.82;;;21.90;64.90;;;;;;5016245;28;20145;-75
2023/01/13 13:06:55;;;;;;;14.38;7.43;;;21.90;65.50;;;;;;5018691;28;20528;-74
2023/01/13 13:09:41;;;;;;;12.10;7.50;;;21.80;65.60;;;;;;5029813;28;20054;-76
2023/01/13 13:15:28;;;;;;;13.40;6.90;;;21.80;65.60;;;;;;5006072;28;20033;-76
2023/01/13 13:18:01;;;;;;;17.70;6.65;;;21.70;65.30;;;;;;5059393;28;20456;-75
2023/01/13 13:21:05;;;;;;;17.95;8.15;;;21.80;65.20;;;;;;5075992;28;20456;-76
2023/01/13 13:23:47;;;;;;;10.38;6.15;;;21.80;64.90;;;;;;5072587;28;20432;-76
2023/01/13 13:26:13;;;;;;;15.63;8.27;;;21.80;65.50;;;;;;5074246;28;20048;-75
2023/01/13 13:28:47;;;;;;;10.75;6.88;;;21.70;65.20;;;;;;5091295;28;20072;-75
2023/01/13 13:31:43;;;;;;;11.73;6.32;;;21.60;65.50;;;;;;5092381;28;20027;-75
2023/01/13 13:34:32;;;;;;;9.13;6.80;;;21.70;65.90;;;;;;5073925;28;20090;-78
2023/01/13 13:37:19;;;;;;;11.65;7.38;;;21.50;66.00;;;;;;5073804;28;20028;-79
2023/01/13 13:48:21;;;;;;;12.73;8.50;;;21.60;65.00;;;;;;5091310;28;20032;-78
2023/01/13 13:50:49;;;;;;;16.98;8.50;;;21.50;64.60;;;;;;5080664;28;20032;-74
2023/01/13 13:53:18;;;;;;;12.80;8.27;;;21.50;65.10;;;;;;5086060;28;20039;-78
2023/01/13 13:55:56;;;;;;;15.25;9.05;;;21.40;64.90;;;;;;5077658;28;20028;-75
2023/01/13 13:58:25;;;;;;;20.50;9.55;;;21.30;63.60;;;;;;5082258;28;20495;-74
2023/01/13 14:00:52;;;;;;;15.05;8.15;;;21.40;64.90;;;;;;5078048;28;20492;-74
2023/01/13 14:03:27;;;;;;;15.98;8.57;;;21.40;64.50;;;;;;5093248;28;20135;-74
2023/01/13 14:05:59;;;;;;;19.25;8.93;;;21.40;64.10;;;;;;5093048;28;20530;-74
2023/01/13 14:08:35;;;;;;;12.50;7.38;;;21.50;64.20;;;;;;5093277;28;20074;-74
2023/01/13 14:11:15;;;;;;;15.77;9.25;;;21.60;64.20;;;;;;5092881;28;20147;-74